sensor_id;sensor_type;location;lat;lon;timestamp;P1;durP1;ratioP1;P2;durP2;ratioP2
46653;SDS011;38960;51.074;17.004;2023-06-22T00:00:54;27.38;;;25.17;;
46653;SDS011;38960;51.074;17.004;2023-06-22T00:03:21;28.33;;;26.23;;
46653;SDS011;38960;51.074;17.004;2023-06-22T00:05:47;28.75;;;26.63;;
46653;SDS011;38960;51.074;17.004;2023-06-22T00:08:13;28.33;;;26.00;;
46653;SDS011;38960;51.074;17.004;2023-06-22T00:10:39;27.98;;;25.85;;
46653;SDS011;38960;51.074;17.004;2023-06-22T00:13:05;30.50;;;28.13;;
46653;SDS011;38960;51.074;17.004;2023-06-22T00:15:31;27.58;;;25.48;;
46653;SDS011;38960;51.074;17.004;2023-06-22T00:17:57;28.65;;;26.33;;
46653;SDS011;38960;51.074;17.004;2023-06-22T00:20:24;28.35;;;26.08;;
46653;SDS011;38960;51.074;17.004;2023-06-22T00:22:56;29.08;;;26.58;;
46653;SDS011;38960;51.074;17.004;2023-06-22T00:25:22;29.48;;;26.98;;
46653;SDS011;38960;51.074;17.004;2023-06-22T00:27:48;29.15;;;26.83;;
46653;SDS011;38960;51.074;17.004;2023-06-22T00:30:18;28.17;;;25.98;;
46653;SDS011;38960;51.074;17.004;2023-06-22T00:32:44;28.92;;;26.42;;
46653;SDS011;38960;51.074;17.004;2023-06-22T00:35:11;29.80;;;27.42;;
46653;SDS011;38960;51.074;17.004;2023-06-22T00:37:37;28.58;;;26.15;;
46653;SDS011;38960;51.074;17.004;2023-06-22T00:40:06;28.63;;;26.20;;
46653;SDS011;38960;51.074;17.004;2023-06-22T00:42:34;29.35;;;27.23;;
46653;SDS011;38960;51.074;17.004;2023-06-22T00:44:59;29.33;;;27.02;;
46653;SDS011;38960;51.074;17.004;2023-06-22T00:47:25;29.13;;;26.42;;
46653;SDS011;38960;51.074;17.004;2023-06-22T00:49:52;28.77;;;26.30;;
46653;SDS011;38960;51.074;17.004;2023-06-22T00:52:18;28.48;;;26.15;;
46653;SDS011;38960;51.074;17.004;2023-06-22T00:54:46;28.90;;;26.40;;
46653;SDS011;38960;51.074;17.004;2023-06-22T00:57:14;30.73;;;28.10;;
46653;SDS011;38960;51.074;17.004;2023-06-22T00:59:46;28.35;;;26.15;;
46653;SDS011;38960;51.074;17.004;2023-06-22T01:02:13;28.27;;;26.15;;
46653;SDS011;38960;51.074;17.004;2023-06-22T01:04:39;31.00;;;27.95;;
46653;SDS011;38960;51.074;17.004;2023-06-22T01:07:10;29.02;;;26.70;;
46653;SDS011;38960;51.074;17.004;2023-06-22T01:09:44;28.45;;;26.02;;
46653;SDS011;38960;51.074;17.004;2023-06-22T01:12:34;29.15;;;26.65;;
46653;SDS011;38960;51.074;17.004;2023-06-22T01:15:10;29.75;;;27.10;;
46653;SDS011;38960;51.074;17.004;2023-06-22T01:17:39;29.65;;;27.23;;
46653;SDS011;38960;51.074;17.004;2023-06-22T01:22:39;29.88;;;27.35;;
46653;SDS011;38960;51.074;17.004;2023-06-22T01:25:41;29.75;;;27.40;;
46653;SDS011;38960;51.074;17.004;2023-06-22T01:28:23;29.35;;;26.83;;
46653;SDS011;38960;51.074;17.004;2023-06-22T01:30:57;29.60;;;27.23;;
46653;SDS011;38960;51.074;17.004;2023-06-22T01:33:35;30.15;;;27.65;;
46653;SDS011;38960;51.074;17.004;2023-06-22T01:36:03;28.65;;;26.33;;
46653;SDS011;38960;51.074;17.004;2023-06-22T01:38:30;30.13;;;27.70;;
46653;SDS011;38960;51.074;17.004;2023-06-22T01:40:57;29.50;;;27.23;;
46653;SDS011;38960;51.074;17.004;2023-06-22T01:43:24;30.27;;;27.40;;
46653;SDS011;38960;51.074;17.004;2023-06-22T01:45:51;28.00;;;25.75;;
46653;SDS011;38960;51.074;17.004;2023-06-22T01:48:18;28.27;;;26.17;;
46653;SDS011;38960;51.074;17.004;2023-06-22T01:50:44;30.10;;;27.40;;
46653;SDS011;38960;51.074;17.004;2023-06-22T01:53:10;28.92;;;26.52;;
46653;SDS011;38960;51.074;17.004;2023-06-22T01:55:35;27.95;;;25.65;;
46653;SDS011;38960;51.074;17.004;2023-06-22T01:58:01;28.88;;;26.58;;
46653;SDS011;38960;51.074;17.004;2023-06-22T02:00:28;29.10;;;26.90;;
46653;SDS011;38960;51.074;17.004;2023-06-22T02:03:01;29.27;;;26.98;;
46653;SDS011;38960;51.074;17.004;2023-06-22T02:05:38;28.08;;;25.63;;
46653;SDS011;38960;51.074;17.004;2023-06-22T02:08:16;28.73;;;26.52;;
46653;SDS011;38960;51.074;17.004;2023-06-22T02:10:46;29.38;;;27.00;;
46653;SDS011;38960;51.074;17.004;2023-06-22T02:13:13;29.20;;;26.65;;
46653;SDS011;38960;51.074;17.004;2023-06-22T02:15:39;29.58;;;27.25;;
46653;SDS011;38960;51.074;17.004;2023-06-22T02:18:04;29.38;;;26.73;;
46653;SDS011;38960;51.074;17.004;2023-06-22T02:20:30;28.13;;;25.88;;
46653;SDS011;38960;51.074;17.004;2023-06-22T02:22:56;28.63;;;26.42;;
46653;SDS011;38960;51.074;17.004;2023-06-22T02:25:21;29.63;;;27.35;;
46653;SDS011;38960;51.074;17.004;2023-06-22T02:27:47;28.98;;;26.67;;
46653;SDS011;38960;51.074;17.004;2023-06-22T02:30:15;28.52;;;25.98;;
46653;SDS011;38960;51.074;17.004;2023-06-22T02:32:41;28.27;;;26.08;;
46653;SDS011;38960;51.074;17.004;2023-06-22T02:35:08;28.67;;;26.17;;
46653;SDS011;38960;51.074;17.004;2023-06-22T02:37:36;31.05;;;28.25;;
46653;SDS011;38960;51.074;17.004;2023-06-22T02:40:09;29.33;;;26.87;;
46653;SDS011;38960;51.074;17.004;2023-06-22T02:42:36;28.88;;;26.50;;
46653;SDS011;38960;51.074;17.004;2023-06-22T02:45:02;29.65;;;27.17;;
46653;SDS011;38960;51.074;17.004;2023-06-22T02:47:28;28.67;;;26.38;;
46653;SDS011;38960;51.074;17.004;2023-06-22T02:49:53;29.73;;;27.23;;
46653;SDS011;38960;51.074;17.004;2023-06-22T02:52:19;28.58;;;25.92;;
46653;SDS011;38960;51.074;17.004;2023-06-22T02:54:45;30.35;;;27.75;;
46653;SDS011;38960;51.074;17.004;2023-06-22T02:57:12;28.80;;;26.70;;
46653;SDS011;38960;51.074;17.004;2023-06-22T02:59:40;29.35;;;27.00;;
46653;SDS011;38960;51.074;17.004;2023-06-22T03:02:08;29.35;;;27.02;;
46653;SDS011;38960;51.074;17.004;2023-06-22T03:04:34;28.67;;;26.25;;
46653;SDS011;38960;51.074;17.004;2023-06-22T03:07:00;29.42;;;26.95;;
46653;SDS011;38960;51.074;17.004;2023-06-22T03:09:28;29.40;;;26.98;;
46653;SDS011;38960;51.074;17.004;2023-06-22T03:11:55;28.88;;;26.77;;
46653;SDS011;38960;51.074;17.004;2023-06-22T03:14:23;29.08;;;26.60;;
46653;SDS011;38960;51.074;17.004;2023-06-22T03:16:49;30.15;;;27.73;;
46653;SDS011;38960;51.074;17.004;2023-06-22T03:19:14;29.70;;;27.05;;
46653;SDS011;38960;51.074;17.004;2023-06-22T03:21:40;30.85;;;28.35;;
46653;SDS011;38960;51.074;17.004;2023-06-22T03:24:06;30.95;;;28.25;;
46653;SDS011;38960;51.074;17.004;2023-06-22T03:26:32;29.00;;;26.77;;
46653;SDS011;38960;51.074;17.004;2023-06-22T03:28:58;28.85;;;26.55;;
46653;SDS011;38960;51.074;17.004;2023-06-22T03:31:23;30.25;;;27.13;;
46653;SDS011;38960;51.074;17.004;2023-06-22T03:33:49;29.33;;;26.77;;
46653;SDS011;38960;51.074;17.004;2023-06-22T03:36:15;30.27;;;27.35;;
46653;SDS011;38960;51.074;17.004;2023-06-22T03:38:46;30.50;;;28.13;;
46653;SDS011;38960;51.074;17.004;2023-06-22T03:41:12;29.83;;;27.52;;
46653;SDS011;38960;51.074;17.004;2023-06-22T03:43:39;29.30;;;26.60;;
46653;SDS011;38960;51.074;17.004;2023-06-22T03:46:04;28.33;;;26.23;;
46653;SDS011;38960;51.074;17.004;2023-06-22T03:48:30;27.90;;;25.20;;
46653;SDS011;38960;51.074;17.004;2023-06-22T03:50:56;28.23;;;25.95;;
46653;SDS011;38960;51.074;17.004;2023-06-22T03:53:21;28.77;;;26.45;;
46653;SDS011;38960;51.074;17.004;2023-06-22T03:55:50;30.88;;;27.83;;
46653;SDS011;38960;51.074;17.004;2023-06-22T03:58:17;30.42;;;27.58;;
46653;SDS011;38960;51.074;17.004;2023-06-22T04:00:50;30.50;;;28.00;;
46653;SDS011;38960;51.074;17.004;2023-06-22T04:03:17;31.40;;;28.83;;
46653;SDS011;38960;51.074;17.004;2023-06-22T04:05:46;30.10;;;27.70;;
46653;SDS011;38960;51.074;17.004;2023-06-22T04:08:12;31.08;;;28.40;;
46653;SDS011;38960;51.074;17.004;2023-06-22T04:10:39;32.70;;;29.90;;
46653;SDS011;38960;51.074;17.004;2023-06-22T04:13:04;30.63;;;27.77;;
46653;SDS011;38960;51.074;17.004;2023-06-22T04:15:30;29.45;;;26.75;;
46653;SDS011;38960;51.074;17.004;2023-06-22T04:17:55;30.55;;;27.42;;
46653;SDS011;38960;51.074;17.004;2023-06-22T04:20:21;31.75;;;28.88;;
46653;SDS011;38960;51.074;17.004;2023-06-22T04:22:47;29.67;;;26.95;;
46653;SDS011;38960;51.074;17.004;2023-06-22T04:25:12;31.77;;;28.92;;
46653;SDS011;38960;51.074;17.004;2023-06-22T04:27:38;31.05;;;28.35;;
46653;SDS011;38960;51.074;17.004;2023-06-22T04:30:06;31.17;;;28.35;;
46653;SDS011;38960;51.074;17.004;2023-06-22T04:32:32;31.38;;;28.25;;
46653;SDS011;38960;51.074;17.004;2023-06-22T04:34:58;34.47;;;30.65;;
46653;SDS011;38960;51.074;17.004;2023-06-22T04:37:25;32.40;;;28.13;;
46653;SDS011;38960;51.074;17.004;2023-06-22T04:39:51;32.35;;;29.15;;
46653;SDS011;38960;51.074;17.004;2023-06-22T04:42:18;32.00;;;29.35;;
46653;SDS011;38960;51.074;17.004;2023-06-22T04:44:43;32.33;;;29.48;;
46653;SDS011;38960;51.074;17.004;2023-06-22T04:47:09;30.70;;;28.08;;
46653;SDS011;38960;51.074;17.004;2023-06-22T04:49:35;32.80;;;29.80;;
46653;SDS011;38960;51.074;17.004;2023-06-22T04:54:34;31.33;;;28.83;;
46653;SDS011;38960;51.074;17.004;2023-06-22T04:57:04;32.33;;;29.42;;
46653;SDS011;38960;51.074;17.004;2023-06-22T04:59:35;33.33;;;30.08;;
46653;SDS011;38960;51.074;17.004;2023-06-22T05:02:01;32.10;;;29.08;;
46653;SDS011;38960;51.074;17.004;2023-06-22T05:04:28;33.70;;;30.55;;
46653;SDS011;38960;51.074;17.004;2023-06-22T05:06:56;34.97;;;32.03;;
46653;SDS011;38960;51.074;17.004;2023-06-22T05:09:22;32.80;;;30.30;;
46653;SDS011;38960;51.074;17.004;2023-06-22T05:11:50;35.78;;;32.70;;
46653;SDS011;38960;51.074;17.004;2023-06-22T05:14:15;36.28;;;33.53;;
46653;SDS011;38960;51.074;17.004;2023-06-22T05:16:41;35.60;;;32.33;;
46653;SDS011;38960;51.074;17.004;2023-06-22T05:19:07;37.03;;;33.80;;
46653;SDS011;38960;51.074;17.004;2023-06-22T05:21:33;35.40;;;32.63;;
46653;SDS011;38960;51.074;17.004;2023-06-22T05:23:59;36.95;;;33.90;;
46653;SDS011;38960;51.074;17.004;2023-06-22T05:26:28;35.63;;;32.75;;
46653;SDS011;38960;51.074;17.004;2023-06-22T05:28:55;34.40;;;31.45;;
46653;SDS011;38960;51.074;17.004;2023-06-22T05:31:21;33.97;;;31.05;;
46653;SDS011;38960;51.074;17.004;2023-06-22T05:33:47;35.63;;;32.63;;
46653;SDS011;38960;51.074;17.004;2023-06-22T05:36:13;31.92;;;29.20;;
46653;SDS011;38960;51.074;17.004;2023-06-22T05:38:39;31.70;;;29.15;;
46653;SDS011;38960;51.074;17.004;2023-06-22T05:41:05;31.13;;;28.63;;
46653;SDS011;38960;51.074;17.004;2023-06-22T05:43:31;31.83;;;29.10;;
46653;SDS011;38960;51.074;17.004;2023-06-22T05:45:57;30.50;;;27.75;;
46653;SDS011;38960;51.074;17.004;2023-06-22T05:48:23;30.45;;;28.05;;
46653;SDS011;38960;51.074;17.004;2023-06-22T05:50:49;30.05;;;27.80;;
46653;SDS011;38960;51.074;17.004;2023-06-22T05:53:14;29.30;;;26.90;;
46653;SDS011;38960;51.074;17.004;2023-06-22T05:55:40;28.25;;;26.23;;
46653;SDS011;38960;51.074;17.004;2023-06-22T05:58:06;29.35;;;26.95;;
46653;SDS011;38960;51.074;17.004;2023-06-22T06:00:31;29.95;;;27.23;;
46653;SDS011;38960;51.074;17.004;2023-06-22T06:02:57;28.95;;;26.67;;
46653;SDS011;38960;51.074;17.004;2023-06-22T06:05:28;26.42;;;24.42;;
46653;SDS011;38960;51.074;17.004;2023-06-22T06:07:57;27.15;;;25.15;;
46653;SDS011;38960;51.074;17.004;2023-06-22T06:10:23;26.02;;;24.23;;
46653;SDS011;38960;51.074;17.004;2023-06-22T06:12:49;27.20;;;24.15;;
46653;SDS011;38960;51.074;17.004;2023-06-22T06:15:14;27.40;;;25.30;;
46653;SDS011;38960;51.074;17.004;2023-06-22T06:17:49;26.70;;;24.83;;
46653;SDS011;38960;51.074;17.004;2023-06-22T06:20:18;25.25;;;23.30;;
46653;SDS011;38960;51.074;17.004;2023-06-22T06:22:45;26.85;;;24.65;;
46653;SDS011;38960;51.074;17.004;2023-06-22T06:25:11;26.02;;;24.20;;
46653;SDS011;38960;51.074;17.004;2023-06-22T06:27:44;24.92;;;23.13;;
46653;SDS011;38960;51.074;17.004;2023-06-22T06:30:11;25.60;;;23.80;;
46653;SDS011;38960;51.074;17.004;2023-06-22T06:32:37;25.60;;;23.77;;
46653;SDS011;38960;51.074;17.004;2023-06-22T06:35:05;26.05;;;24.27;;
46653;SDS011;38960;51.074;17.004;2023-06-22T06:37:31;26.05;;;24.30;;
46653;SDS011;38960;51.074;17.004;2023-06-22T06:39:56;24.73;;;23.05;;
46653;SDS011;38960;51.074;17.004;2023-06-22T06:42:22;25.45;;;23.75;;
46653;SDS011;38960;51.074;17.004;2023-06-22T06:44:49;26.65;;;24.50;;
46653;SDS011;38960;51.074;17.004;2023-06-22T06:47:15;26.75;;;24.63;;
46653;SDS011;38960;51.074;17.004;2023-06-22T06:49:42;25.08;;;23.48;;
46653;SDS011;38960;51.074;17.004;2023-06-22T06:52:07;25.13;;;23.42;;
46653;SDS011;38960;51.074;17.004;2023-06-22T06:54:33;26.75;;;24.88;;
46653;SDS011;38960;51.074;17.004;2023-06-22T06:56:58;25.25;;;23.48;;
46653;SDS011;38960;51.074;17.004;2023-06-22T06:59:24;26.25;;;24.23;;
46653;SDS011;38960;51.074;17.004;2023-06-22T07:01:50;25.58;;;23.70;;
46653;SDS011;38960;51.074;17.004;2023-06-22T07:04:15;26.95;;;25.20;;
46653;SDS011;38960;51.074;17.004;2023-06-22T07:06:41;25.42;;;23.63;;
46653;SDS011;38960;51.074;17.004;2023-06-22T07:09:07;24.83;;;23.20;;
46653;SDS011;38960;51.074;17.004;2023-06-22T07:11:33;24.80;;;23.05;;
46653;SDS011;38960;51.074;17.004;2023-06-22T07:13:58;25.05;;;23.45;;
46653;SDS011;38960;51.074;17.004;2023-06-22T07:16:25;26.88;;;24.73;;
46653;SDS011;38960;51.074;17.004;2023-06-22T07:18:53;25.77;;;23.97;;
46653;SDS011;38960;51.074;17.004;2023-06-22T07:21:18;25.17;;;23.48;;
46653;SDS011;38960;51.074;17.004;2023-06-22T07:23:44;24.75;;;23.05;;
46653;SDS011;38960;51.074;17.004;2023-06-22T07:26:09;26.88;;;25.00;;
46653;SDS011;38960;51.074;17.004;2023-06-22T07:28:35;26.70;;;25.00;;
46653;SDS011;38960;51.074;17.004;2023-06-22T07:31:03;25.85;;;23.95;;
46653;SDS011;38960;51.074;17.004;2023-06-22T07:33:32;25.08;;;23.35;;
46653;SDS011;38960;51.074;17.004;2023-06-22T07:35:57;26.30;;;24.50;;
46653;SDS011;38960;51.074;17.004;2023-06-22T07:38:23;25.42;;;23.73;;
46653;SDS011;38960;51.074;17.004;2023-06-22T07:40:48;26.05;;;24.02;;
46653;SDS011;38960;51.074;17.004;2023-06-22T07:43:14;27.35;;;25.55;;
46653;SDS011;38960;51.074;17.004;2023-06-22T07:45:39;26.77;;;24.98;;
46653;SDS011;38960;51.074;17.004;2023-06-22T07:48:07;27.60;;;25.70;;
46653;SDS011;38960;51.074;17.004;2023-06-22T07:50:32;26.27;;;24.33;;
46653;SDS011;38960;51.074;17.004;2023-06-22T07:52:58;26.80;;;25.02;;
46653;SDS011;38960;51.074;17.004;2023-06-22T07:55:24;25.55;;;23.75;;
46653;SDS011;38960;51.074;17.004;2023-06-22T07:57:49;26.13;;;24.27;;
46653;SDS011;38960;51.074;17.004;2023-06-22T08:00:17;27.33;;;25.17;;
46653;SDS011;38960;51.074;17.004;2023-06-22T08:02:44;27.20;;;25.00;;
46653;SDS011;38960;51.074;17.004;2023-06-22T08:05:10;25.83;;;24.00;;
46653;SDS011;38960;51.074;17.004;2023-06-22T08:07:37;28.30;;;26.30;;
46653;SDS011;38960;51.074;17.004;2023-06-22T08:10:04;28.27;;;26.35;;
46653;SDS011;38960;51.074;17.004;2023-06-22T08:12:30;26.38;;;24.75;;
46653;SDS011;38960;51.074;17.004;2023-06-22T08:14:56;27.70;;;25.83;;
46653;SDS011;38960;51.074;17.004;2023-06-22T08:17:22;28.45;;;26.35;;
46653;SDS011;38960;51.074;17.004;2023-06-22T08:19:49;27.50;;;25.67;;
46653;SDS011;38960;51.074;17.004;2023-06-22T08:22:15;27.20;;;25.20;;
46653;SDS011;38960;51.074;17.004;2023-06-22T08:24:41;28.85;;;26.92;;
46653;SDS011;38960;51.074;17.004;2023-06-22T08:27:07;26.85;;;25.05;;
46653;SDS011;38960;51.074;17.004;2023-06-22T08:29:34;25.58;;;23.88;;
46653;SDS011;38960;51.074;17.004;2023-06-22T08:32:01;28.08;;;26.08;;
46653;SDS011;38960;51.074;17.004;2023-06-22T08:34:26;27.88;;;25.67;;
46653;SDS011;38960;51.074;17.004;2023-06-22T08:36:53;26.42;;;24.73;;
46653;SDS011;38960;51.074;17.004;2023-06-22T08:39:21;26.65;;;24.58;;
46653;SDS011;38960;51.074;17.004;2023-06-22T08:41:47;27.90;;;25.83;;
46653;SDS011;38960;51.074;17.004;2023-06-22T08:44:13;28.13;;;25.85;;
46653;SDS011;38960;51.074;17.004;2023-06-22T08:46:39;26.08;;;24.30;;
46653;SDS011;38960;51.074;17.004;2023-06-22T08:49:06;27.42;;;25.52;;
46653;SDS011;38960;51.074;17.004;2023-06-22T08:51:32;28.45;;;26.42;;
46653;SDS011;38960;51.074;17.004;2023-06-22T08:53:57;27.95;;;26.05;;
46653;SDS011;38960;51.074;17.004;2023-06-22T08:56:23;28.95;;;26.75;;
46653;SDS011;38960;51.074;17.004;2023-06-22T08:58:48;28.23;;;26.33;;
46653;SDS011;38960;51.074;17.004;2023-06-22T09:01:14;28.55;;;26.58;;
46653;SDS011;38960;51.074;17.004;2023-06-22T09:03:40;27.98;;;25.98;;
46653;SDS011;38960;51.074;17.004;2023-06-22T09:06:06;28.63;;;26.73;;
46653;SDS011;38960;51.074;17.004;2023-06-22T09:08:34;28.38;;;26.25;;
46653;SDS011;38960;51.074;17.004;2023-06-22T09:11:00;27.30;;;25.30;;
46653;SDS011;38960;51.074;17.004;2023-06-22T09:13:26;28.30;;;26.33;;
46653;SDS011;38960;51.074;17.004;2023-06-22T09:15:53;27.40;;;25.40;;
46653;SDS011;38960;51.074;17.004;2023-06-22T09:18:18;27.17;;;25.20;;
46653;SDS011;38960;51.074;17.004;2023-06-22T09:20:44;27.60;;;25.60;;
46653;SDS011;38960;51.074;17.004;2023-06-22T09:23:10;26.10;;;24.35;;
46653;SDS011;38960;51.074;17.004;2023-06-22T09:25:36;27.00;;;25.15;;
46653;SDS011;38960;51.074;17.004;2023-06-22T09:28:01;26.90;;;25.10;;
46653;SDS011;38960;51.074;17.004;2023-06-22T09:30:27;27.92;;;25.63;;
46653;SDS011;38960;51.074;17.004;2023-06-22T09:32:52;26.77;;;24.88;;
46653;SDS011;38960;51.074;17.004;2023-06-22T09:35:19;27.38;;;25.45;;
46653;SDS011;38960;51.074;17.004;2023-06-22T09:37:45;26.30;;;24.15;;
46653;SDS011;38960;51.074;17.004;2023-06-22T09:40:11;26.60;;;24.55;;
46653;SDS011;38960;51.074;17.004;2023-06-22T09:42:38;26.48;;;24.60;;
46653;SDS011;38960;51.074;17.004;2023-06-22T09:45:04;25.85;;;24.00;;
46653;SDS011;38960;51.074;17.004;2023-06-22T09:47:30;27.50;;;25.60;;
46653;SDS011;38960;51.074;17.004;2023-06-22T09:49:56;26.02;;;24.13;;
46653;SDS011;38960;51.074;17.004;2023-06-22T09:52:24;25.77;;;23.98;;
46653;SDS011;38960;51.074;17.004;2023-06-22T09:54:49;26.13;;;24.33;;
46653;SDS011;38960;51.074;17.004;2023-06-22T09:57:15;26.50;;;24.70;;
46653;SDS011;38960;51.074;17.004;2023-06-22T09:59:40;25.58;;;23.50;;
46653;SDS011;38960;51.074;17.004;2023-06-22T10:02:06;25.77;;;24.08;;
46653;SDS011;38960;51.074;17.004;2023-06-22T10:04:33;25.98;;;23.95;;
46653;SDS011;38960;51.074;17.004;2023-06-22T10:06:59;26.15;;;24.45;;
46653;SDS011;38960;51.074;17.004;2023-06-22T10:09:24;26.20;;;24.27;;
46653;SDS011;38960;51.074;17.004;2023-06-22T10:11:50;26.40;;;24.30;;
46653;SDS011;38960;51.074;17.004;2023-06-22T10:14:15;25.65;;;23.95;;
46653;SDS011;38960;51.074;17.004;2023-06-22T10:16:42;25.48;;;23.67;;
46653;SDS011;38960;51.074;17.004;2023-06-22T10:19:07;25.90;;;24.20;;
46653;SDS011;38960;51.074;17.004;2023-06-22T10:21:33;26.05;;;23.80;;
46653;SDS011;38960;51.074;17.004;2023-06-22T10:23:59;25.13;;;23.23;;
46653;SDS011;38960;51.074;17.004;2023-06-22T10:26:34;25.90;;;24.10;;
46653;SDS011;38960;51.074;17.004;2023-06-22T10:29:00;24.88;;;23.00;;
46653;SDS011;38960;51.074;17.004;2023-06-22T10:31:26;24.20;;;22.60;;
46653;SDS011;38960;51.074;17.004;2023-06-22T10:33:53;24.35;;;22.65;;
46653;SDS011;38960;51.074;17.004;2023-06-22T10:36:19;24.70;;;22.95;;
46653;SDS011;38960;51.074;17.004;2023-06-22T10:38:44;26.60;;;24.60;;
46653;SDS011;38960;51.074;17.004;2023-06-22T10:41:10;27.25;;;25.08;;
46653;SDS011;38960;51.074;17.004;2023-06-22T10:43:36;24.70;;;22.98;;
46653;SDS011;38960;51.074;17.004;2023-06-22T10:46:01;25.77;;;24.10;;
46653;SDS011;38960;51.074;17.004;2023-06-22T10:48:27;25.08;;;23.33;;
46653;SDS011;38960;51.074;17.004;2023-06-22T10:50:52;25.60;;;23.55;;
46653;SDS011;38960;51.074;17.004;2023-06-22T10:53:19;25.13;;;23.40;;
46653;SDS011;38960;51.074;17.004;2023-06-22T10:55:45;24.58;;;22.85;;
46653;SDS011;38960;51.074;17.004;2023-06-22T10:58:10;26.13;;;24.23;;
46653;SDS011;38960;51.074;17.004;2023-06-22T11:00:36;25.60;;;23.70;;
46653;SDS011;38960;51.074;17.004;2023-06-22T11:03:02;24.50;;;22.75;;
46653;SDS011;38960;51.074;17.004;2023-06-22T11:05:27;24.80;;;23.10;;
46653;SDS011;38960;51.074;17.004;2023-06-22T11:07:53;25.40;;;23.70;;
46653;SDS011;38960;51.074;17.004;2023-06-22T11:10:18;25.88;;;23.98;;
46653;SDS011;38960;51.074;17.004;2023-06-22T11:12:44;25.00;;;23.23;;
46653;SDS011;38960;51.074;17.004;2023-06-22T11:15:09;26.42;;;24.52;;
46653;SDS011;38960;51.074;17.004;2023-06-22T11:17:35;25.20;;;23.50;;
46653;SDS011;38960;51.074;17.004;2023-06-22T11:20:01;25.13;;;23.40;;
46653;SDS011;38960;51.074;17.004;2023-06-22T11:22:26;25.77;;;23.73;;
46653;SDS011;38960;51.074;17.004;2023-06-22T11:24:52;25.08;;;23.38;;
46653;SDS011;38960;51.074;17.004;2023-06-22T11:27:18;24.75;;;23.08;;
46653;SDS011;38960;51.074;17.004;2023-06-22T11:29:43;25.70;;;23.90;;
46653;SDS011;38960;51.074;17.004;2023-06-22T11:32:09;26.02;;;24.20;;
46653;SDS011;38960;51.074;17.004;2023-06-22T11:34:34;25.55;;;23.63;;
46653;SDS011;38960;51.074;17.004;2023-06-22T11:37:00;24.90;;;23.10;;
46653;SDS011;38960;51.074;17.004;2023-06-22T11:39:25;25.35;;;23.40;;
46653;SDS011;38960;51.074;17.004;2023-06-22T11:41:51;26.98;;;24.75;;
46653;SDS011;38960;51.074;17.004;2023-06-22T11:44:17;24.77;;;22.90;;
46653;SDS011;38960;51.074;17.004;2023-06-22T11:46:42;24.88;;;23.17;;
46653;SDS011;38960;51.074;17.004;2023-06-22T11:49:08;25.33;;;23.52;;
46653;SDS011;38960;51.074;17.004;2023-06-22T11:51:33;25.10;;;23.45;;
46653;SDS011;38960;51.074;17.004;2023-06-22T11:53:59;25.33;;;23.63;;
46653;SDS011;38960;51.074;17.004;2023-06-22T11:56:25;25.05;;;23.38;;
46653;SDS011;38960;51.074;17.004;2023-06-22T11:58:50;24.98;;;23.27;;
46653;SDS011;38960;51.074;17.004;2023-06-22T12:01:16;25.10;;;23.42;;
46653;SDS011;38960;51.074;17.004;2023-06-22T12:03:41;25.80;;;23.90;;
46653;SDS011;38960;51.074;17.004;2023-06-22T12:06:09;24.50;;;22.50;;
46653;SDS011;38960;51.074;17.004;2023-06-22T12:08:34;24.55;;;22.55;;
46653;SDS011;38960;51.074;17.004;2023-06-22T12:11:00;25.67;;;23.98;;
46653;SDS011;38960;51.074;17.004;2023-06-22T12:13:25;24.45;;;22.65;;
46653;SDS011;38960;51.074;17.004;2023-06-22T12:15:51;27.60;;;25.60;;
46653;SDS011;38960;51.074;17.004;2023-06-22T12:18:17;25.40;;;23.60;;
46653;SDS011;38960;51.074;17.004;2023-06-22T12:20:45;25.00;;;23.08;;
46653;SDS011;38960;51.074;17.004;2023-06-22T12:23:11;23.73;;;22.02;;
46653;SDS011;38960;51.074;17.004;2023-06-22T12:25:37;24.00;;;22.40;;
46653;SDS011;38960;51.074;17.004;2023-06-22T12:28:02;23.92;;;22.23;;
46653;SDS011;38960;51.074;17.004;2023-06-22T12:30:29;24.02;;;22.25;;
46653;SDS011;38960;51.074;17.004;2023-06-22T12:32:55;24.27;;;22.27;;
46653;SDS011;38960;51.074;17.004;2023-06-22T12:35:21;25.15;;;23.45;;
46653;SDS011;38960;51.074;17.004;2023-06-22T12:37:46;26.02;;;23.55;;
46653;SDS011;38960;51.074;17.004;2023-06-22T12:40:12;24.27;;;21.85;;
46653;SDS011;38960;51.074;17.004;2023-06-22T12:42:38;23.83;;;21.95;;
46653;SDS011;38960;51.074;17.004;2023-06-22T12:45:03;22.73;;;21.05;;
46653;SDS011;38960;51.074;17.004;2023-06-22T12:47:30;22.40;;;20.80;;
46653;SDS011;38960;51.074;17.004;2023-06-22T12:49:56;23.65;;;22.05;;
46653;SDS011;38960;51.074;17.004;2023-06-22T12:52:22;23.08;;;21.48;;
46653;SDS011;38960;51.074;17.004;2023-06-22T12:54:47;23.40;;;21.60;;
46653;SDS011;38960;51.074;17.004;2023-06-22T12:57:13;24.45;;;22.75;;
46653;SDS011;38960;51.074;17.004;2023-06-22T12:59:39;23.92;;;22.23;;
46653;SDS011;38960;51.074;17.004;2023-06-22T13:02:05;25.15;;;23.00;;
46653;SDS011;38960;51.074;17.004;2023-06-22T13:04:30;22.70;;;21.30;;
46653;SDS011;38960;51.074;17.004;2023-06-22T13:06:56;23.15;;;21.65;;
46653;SDS011;38960;51.074;17.004;2023-06-22T13:09:21;22.70;;;21.00;;
46653;SDS011;38960;51.074;17.004;2023-06-22T13:11:47;23.38;;;21.63;;
46653;SDS011;38960;51.074;17.004;2023-06-22T13:14:13;23.52;;;21.80;;
46653;SDS011;38960;51.074;17.004;2023-06-22T13:16:38;24.17;;;22.58;;
46653;SDS011;38960;51.074;17.004;2023-06-22T13:19:04;22.88;;;21.38;;
46653;SDS011;38960;51.074;17.004;2023-06-22T13:21:30;23.88;;;21.80;;
46653;SDS011;38960;51.074;17.004;2023-06-22T13:23:56;22.77;;;21.27;;
46653;SDS011;38960;51.074;17.004;2023-06-22T13:26:21;22.77;;;21.25;;
46653;SDS011;38960;51.074;17.004;2023-06-22T13:28:48;22.92;;;21.33;;
46653;SDS011;38960;51.074;17.004;2023-06-22T13:31:13;22.20;;;20.63;;
46653;SDS011;38960;51.074;17.004;2023-06-22T13:33:39;22.00;;;20.60;;
46653;SDS011;38960;51.074;17.004;2023-06-22T13:36:06;23.40;;;21.60;;
46653;SDS011;38960;51.074;17.004;2023-06-22T13:38:32;22.75;;;21.02;;
46653;SDS011;38960;51.074;17.004;2023-06-22T13:40:59;22.75;;;21.10;;
46653;SDS011;38960;51.074;17.004;2023-06-22T13:43:26;22.75;;;21.35;;
46653;SDS011;38960;51.074;17.004;2023-06-22T13:45:52;23.38;;;21.77;;
46653;SDS011;38960;51.074;17.004;2023-06-22T13:48:17;23.42;;;21.70;;
46653;SDS011;38960;51.074;17.004;2023-06-22T13:50:43;23.55;;;21.85;;
46653;SDS011;38960;51.074;17.004;2023-06-22T13:53:08;23.75;;;21.95;;
46653;SDS011;38960;51.074;17.004;2023-06-22T13:55:34;23.35;;;21.52;;
46653;SDS011;38960;51.074;17.004;2023-06-22T13:57:59;23.10;;;21.50;;
46653;SDS011;38960;51.074;17.004;2023-06-22T14:00:25;22.85;;;21.25;;
46653;SDS011;38960;51.074;17.004;2023-06-22T14:02:50;23.80;;;22.10;;
46653;SDS011;38960;51.074;17.004;2023-06-22T14:05:16;23.52;;;21.92;;
46653;SDS011;38960;51.074;17.004;2023-06-22T14:07:42;23.55;;;21.85;;
46653;SDS011;38960;51.074;17.004;2023-06-22T14:10:07;24.83;;;23.02;;